Time;durP1;ratioP1;P1;durP2;ratioP2;P2;SDS_P1;SDS_P2;PMS_P1;PMS_P2;Temp;Humidity;BMP_temperature;BMP_pressure;BME280_temperature;BME280_humidity;BME280_pressure;Samples;Min_cycle;Max_cycle;Signal;HPM_P1;HPM_P2
2021/11/28 00:00:31;;;;;;;;;1.00;1.00;;;;;;;;5050336;28;45274;-87
2021/11/28 00:02:56;;;;;;;;;1.25;1.25;;;;;;;;5051230;28;45080;-87
2021/11/28 00:05:24;;;;;;;;;1.00;1.00;;;;;;;;5049476;28;45086;-86
2021/11/28 00:08:09;;;;;;;;;0.25;0.25;;;;;;;;5051052;28;47166;-87
2021/11/28 00:15:54;;;;;;;;;0.75;0.75;;;;;;;;5068537;28;45254;-87
2021/11/28 00:18:20;;;;;;;;;1.25;1.00;;;;;;;;5049949;28;47473;-87
2021/11/28 00:20:45;;;;;;;;;1.75;1.25;;;;;;;;5045372;28;45286;-87
2021/11/28 00:23:10;;;;;;;;;3.00;2.00;;;;;;;;5050706;28;45211;-87
2021/11/28 00:25:35;;;;;;;;;2.00;2.00;;;;;;;;5050287;28;45233;-87
2021/11/28 00:28:01;;;;;;;;;1.00;1.00;;;;;;;;5049597;28;48066;-88
2021/11/28 00:30:27;;;;;;;;;2.00;1.00;;;;;;;;5050012;28;45134;-87
2021/11/28 00:32:53;;;;;;;;;0.25;0.25;;;;;;;;5050491;28;45050;-87
2021/11/28 00:35:18;;;;;;;;;1.00;1.00;;;;;;;;5049984;28;45254;-87
2021/11/28 00:37:44;;;;;;;;;3.00;2.00;;;;;;;;5049935;28;47109;-88
2021/11/28 00:40:09;;;;;;;;;1.00;1.00;;;;;;;;5053444;28;45232;-87
2021/11/28 00:42:34;;;;;;;;;3.00;1.50;;;;;;;;5053312;28;45466;-87
2021/11/28 00:44:59;;;;;;;;;1.33;1.00;;;;;;;;5054014;28;44994;-87
2021/11/28 00:47:25;;;;;;;;;2.00;1.67;;;;;;;;5052650;28;47404;-87
2021/11/28 00:52:37;;;;;;;;;1.00;0.75;;;;;;;;5039766;28;44955;-87
2021/11/28 00:55:03;;;;;;;;;0.00;0.00;;;;;;;;5052783;28;45142;-86
2021/11/28 00:57:28;;;;;;;;;1.50;0.25;;;;;;;;5052802;28;47930;-87
2021/11/28 00:59:54;;;;;;;;;0.00;0.00;;;;;;;;5053506;28;45204;-87
2021/11/28 01:02:19;;;;;;;;;1.75;1.75;;;;;;;;5052880;28;45397;-88
2021/11/28 01:04:45;;;;;;;;;1.00;0.00;;;;;;;;5052846;28;45138;-87
2021/11/28 01:07:11;;;;;;;;;1.75;1.50;;;;;;;;5052238;28;47798;-87
2021/11/28 01:09:36;;;;;;;;;0.75;0.75;;;;;;;;5052572;28;45339;-87
2021/11/28 01:12:02;;;;;;;;;1.50;1.00;;;;;;;;5052577;28;45157;-87
2021/11/28 01:14:27;;;;;;;;;2.50;2.00;;;;;;;;5071419;28;45040;-86
2021/11/28 01:16:52;;;;;;;;;2.00;1.25;;;;;;;;5053181;28;47083;-85
2021/11/28 01:19:18;;;;;;;;;0.00;0.00;;;;;;;;5052638;28;45086;-86
2021/11/28 01:21:51;;;;;;;;;1.00;1.00;;;;;;;;5071143;28;45114;-87
2021/11/28 01:24:16;;;;;;;;;1.00;1.00;;;;;;;;5053096;28;45150;-86
2021/11/28 01:26:41;;;;;;;;;1.00;0.25;;;;;;;;5051874;28;47495;-86
2021/11/28 01:29:06;;;;;;;;;1.00;1.00;;;;;;;;5052354;28;45295;-87
2021/11/28 01:31:31;;;;;;;;;0.67;0.67;;;;;;;;5052838;28;45065;-87
2021/11/28 01:33:57;;;;;;;;;2.00;1.00;;;;;;;;5052629;28;45240;-85
2021/11/28 01:36:22;;;;;;;;;2.00;1.00;;;;;;;;5052128;28;47585;-87
2021/11/28 01:38:47;;;;;;;;;2.00;1.00;;;;;;;;5052537;28;45215;-87
2021/11/28 01:41:13;;;;;;;;;1.75;1.00;;;;;;;;5052112;28;45176;-87
2021/11/28 01:43:38;;;;;;;;;1.75;1.00;;;;;;;;5052595;28;45203;-86
2021/11/28 01:46:03;;;;;;;;;0.00;0.00;;;;;;;;5051902;28;47289;-87
2021/11/28 01:48:28;;;;;;;;;1.00;1.00;;;;;;;;5052222;28;45026;-87
2021/11/28 01:50:54;;;;;;;;;1.67;1.00;;;;;;;;5051256;28;45145;-87
2021/11/28 01:53:24;;;;;;;;;3.00;0.00;;;;;;;;5052082;28;45198;-86
2021/11/28 01:55:50;;;;;;;;;0.75;0.00;;;;;;;;5052087;28;47561;-87
2021/11/28 01:58:15;;;;;;;;;0.25;0.25;;;;;;;;5051837;28;45217;-87
2021/11/28 02:00:45;;;;;;;;;1.25;0.50;;;;;;;;5071117;28;45028;-87
2021/11/28 02:03:12;;;;;;;;;0.50;0.50;;;;;;;;5052092;28;45146;-87
2021/11/28 02:05:39;;;;;;;;;1.00;1.00;;;;;;;;5051611;28;47017;-87
2021/11/28 02:08:04;;;;;;;;;1.00;1.00;;;;;;;;5052689;28;45371;-86
2021/11/28 02:10:30;;;;;;;;;0.67;0.33;;;;;;;;5051500;28;45141;-87
2021/11/28 02:12:55;;;;;;;;;0.00;0.00;;;;;;;;5051851;28;45222;-87
2021/11/28 02:15:20;;;;;;;;;1.00;0.50;;;;;;;;5051489;28;47179;-87
2021/11/28 02:17:50;;;;;;;;;1.00;1.00;;;;;;;;5052260;28;45108;-87
2021/11/28 02:20:16;;;;;;;;;1.00;1.00;;;;;;;;5066434;28;45402;-87
2021/11/28 02:22:41;;;;;;;;;0.00;0.00;;;;;;;;5052743;28;45292;-87
2021/11/28 02:25:08;;;;;;;;;2.50;2.00;;;;;;;;5050940;28;47135;-87
2021/11/28 02:27:34;;;;;;;;;2.00;1.00;;;;;;;;5067718;28;45225;-87
2021/11/28 02:29:59;;;;;;;;;0.25;0.25;;;;;;;;5052345;28;45381;-87
2021/11/28 02:32:24;;;;;;;;;0.00;0.00;;;;;;;;5051871;28;45507;-87
2021/11/28 02:34:50;;;;;;;;;0.00;0.00;;;;;;;;5051487;28;47632;-88
2021/11/28 02:37:15;;;;;;;;;0.00;0.00;;;;;;;;5050986;28;45262;-87
2021/11/28 02:39:40;;;;;;;;;1.00;0.00;;;;;;;;5051524;28;45417;-87
2021/11/28 02:42:06;;;;;;;;;0.25;0.25;;;;;;;;5051202;28;45239;-87
2021/11/28 02:44:32;;;;;;;;;1.00;0.75;;;;;;;;5051551;28;47031;-87
2021/11/28 02:46:57;;;;;;;;;1.25;1.25;;;;;;;;5048190;28;45146;-87
2021/11/28 02:49:22;;;;;;;;;1.00;1.00;;;;;;;;5050946;28;45113;-87
2021/11/28 02:51:48;;;;;;;;;1.00;0.67;;;;;;;;5051609;28;45178;-87
2021/11/28 02:54:14;;;;;;;;;1.00;1.00;;;;;;;;5051260;28;47284;-86
2021/11/28 02:56:40;;;;;;;;;1.00;0.00;;;;;;;;5050122;28;45160;-87
2021/11/28 02:59:06;;;;;;;;;1.00;1.00;;;;;;;;5051411;28;44992;-87
2021/11/28 03:01:31;;;;;;;;;0.00;0.00;;;;;;;;5051137;28;45295;-88
2021/11/28 03:03:56;;;;;;;;;0.50;0.50;;;;;;;;5051478;28;47567;-87
2021/11/28 03:06:22;;;;;;;;;0.67;0.67;;;;;;;;5050767;28;45181;-87
2021/11/28 03:08:47;;;;;;;;;0.00;0.00;;;;;;;;5051304;28;45001;-87
2021/11/28 03:11:13;;;;;;;;;0.50;0.50;;;;;;;;5050768;28;45177;-87
2021/11/28 03:13:40;;;;;;;;;0.00;0.00;;;;;;;;5050729;28;47297;-87
2021/11/28 03:16:07;;;;;;;;;0.00;0.00;;;;;;;;5051222;28;45258;-87
2021/11/28 03:18:33;;;;;;;;;1.50;1.00;;;;;;;;5050871;28;45263;-87
2021/11/28 03:21:00;;;;;;;;;0.00;0.00;;;;;;;;5050934;28;45218;-87
2021/11/28 03:23:28;;;;;;;;;0.00;0.00;;;;;;;;5051108;28;47302;-87
2021/11/28 03:26:06;;;;;;;;;0.25;0.00;;;;;;;;5050421;28;45220;-87
2021/11/28 03:28:31;;;;;;;;;0.25;0.25;;;;;;;;5050617;28;45332;-88
2021/11/28 03:30:57;;;;;;;;;1.00;1.00;;;;;;;;5051246;28;45255;-87
2021/11/28 03:33:22;;;;;;;;;1.00;0.00;;;;;;;;5050736;28;48103;-88
2021/11/28 03:35:48;;;;;;;;;0.00;0.00;;;;;;;;5050808;28;45598;-87
2021/11/28 03:38:13;;;;;;;;;0.00;0.00;;;;;;;;5050394;28;45176;-87
2021/11/28 03:40:39;;;;;;;;;0.00;0.00;;;;;;;;5050573;28;45477;-87
2021/11/28 03:43:04;;;;;;;;;0.33;0.33;;;;;;;;5068768;28;46167;-87
2021/11/28 03:45:30;;;;;;;;;0.00;0.00;;;;;;;;5050294;28;45560;-86
2021/11/28 03:47:55;;;;;;;;;1.00;1.00;;;;;;;;5050917;28;44996;-87
2021/11/28 03:50:20;;;;;;;;;0.33;0.00;;;;;;;;5050421;28;45140;-87
2021/11/28 03:52:45;;;;;;;;;0.00;0.00;;;;;;;;5051222;28;47565;-87
2021/11/28 03:55:13;;;;;;;;;0.00;0.00;;;;;;;;5050259;28;45538;-87
2021/11/28 03:57:38;;;;;;;;;0.25;0.00;;;;;;;;5050275;28;45060;-87
2021/11/28 04:00:05;;;;;;;;;0.00;0.00;;;;;;;;5050919;28;45208;-88
2021/11/28 04:02:30;;;;;;;;;1.00;1.00;;;;;;;;5049638;28;47349;-87
2021/11/28 04:04:55;;;;;;;;;0.00;0.00;;;;;;;;5050894;28;45053;-87
2021/11/28 04:07:21;;;;;;;;;0.67;0.67;;;;;;;;5049964;28;45108;-87
2021/11/28 04:09:46;;;;;;;;;1.00;0.00;;;;;;;;5050455;28;45065;-88
2021/11/28 04:12:11;;;;;;;;;0.67;0.00;;;;;;;;5049868;28;47174;-87
2021/11/28 04:14:37;;;;;;;;;0.75;0.25;;;;;;;;5053491;28;45126;-87
2021/11/28 04:17:02;;;;;;;;;0.00;0.00;;;;;;;;5050067;28;45270;-87
2021/11/28 04:19:27;;;;;;;;;1.00;1.00;;;;;;;;5053578;28;45009;-87
2021/11/28 04:21:53;;;;;;;;;0.00;0.00;;;;;;;;5053899;28;47074;-88
2021/11/28 04:24:18;;;;;;;;;0.00;0.00;;;;;;;;5053570;28;46054;-87
2021/11/28 04:26:43;;;;;;;;;1.00;0.00;;;;;;;;5053688;28;45358;-87
2021/11/28 04:29:09;;;;;;;;;0.00;0.00;;;;;;;;5053662;28;45137;-87
2021/11/28 04:31:34;;;;;;;;;0.00;0.00;;;;;;;;5051286;28;47829;-87
2021/11/28 04:33:59;;;;;;;;;0.67;0.00;;;;;;;;5053893;28;45052;-88
2021/11/28 04:36:25;;;;;;;;;1.50;1.00;;;;;;;;5052909;28;45231;-87
2021/11/28 04:38:50;;;;;;;;;2.00;0.00;;;;;;;;5054012;28;45434;-87
2021/11/28 04:41:15;;;;;;;;;0.00;0.00;;;;;;;;5052287;28;47546;-87
2021/11/28 04:43:40;;;;;;;;;1.33;0.00;;;;;;;;5053801;28;45442;-88
2021/11/28 04:46:05;;;;;;;;;0.00;0.00;;;;;;;;5052804;28;45123;-87
2021/11/28 04:48:31;;;;;;;;;0.00;0.00;;;;;;;;5052119;28;44951;-87
2021/11/28 04:50:56;;;;;;;;;1.00;1.00;;;;;;;;5054406;28;47818;-87
2021/11/28 04:53:21;;;;;;;;;0.75;0.00;;;;;;;;5053667;28;45308;-87
2021/11/28 04:55:47;;;;;;;;;0.75;0.00;;;;;;;;5053276;28;46152;-87
2021/11/28 04:58:12;;;;;;;;;1.00;1.00;;;;;;;;5071036;28;45346;-88
2021/11/28 05:00:37;;;;;;;;;0.00;0.00;;;;;;;;5052898;28;47126;-87
2021/11/28 05:03:03;;;;;;;;;0.67;0.67;;;;;;;;5052809;28;45087;-87
2021/11/28 05:05:28;;;;;;;;;0.00;0.00;;;;;;;;5052922;28;45052;-87
2021/11/28 05:07:54;;;;;;;;;1.00;1.00;;;;;;;;5053171;28;45539;-87
2021/11/28 05:10:19;;;;;;;;;1.25;1.00;;;;;;;;5052335;28;47903;-87
2021/11/28 05:12:45;;;;;;;;;0.00;0.00;;;;;;;;5052766;28;45225;-87
2021/11/28 05:15:10;;;;;;;;;1.00;0.00;;;;;;;;5052984;28;45087;-87
2021/11/28 05:17:35;;;;;;;;;0.50;0.50;;;;;;;;5052491;28;45289;-87
2021/11/28 05:20:02;;;;;;;;;0.00;0.00;;;;;;;;5052560;28;47091;-87
2021/11/28 05:22:28;;;;;;;;;0.00;0.00;;;;;;;;5052761;28;45211;-87
2021/11/28 05:24:53;;;;;;;;;0.00;0.00;;;;;;;;5051490;28;45155;-87
2021/11/28 05:27:19;;;;;;;;;0.00;0.00;;;;;;;;5052317;28;45061;-87
2021/11/28 05:29:44;;;;;;;;;0.00;0.00;;;;;;;;5052519;28;47328;-87
2021/11/28 05:32:09;;;;;;;;;0.50;0.50;;;;;;;;5052833;28;45058;-87
2021/11/28 05:34:35;;;;;;;;;0.00;0.00;;;;;;;;5052926;28;44878;-87
2021/11/28 05:37:01;;;;;;;;;1.00;1.00;;;;;;;;5051883;28;45233;-87
2021/11/28 05:39:26;;;;;;;;;0.67;0.67;;;;;;;;5051939;28;47728;-87
2021/11/28 05:41:51;;;;;;;;;0.00;0.00;;;;;;;;5047414;28;45196;-87
2021/11/28 05:44:16;;;;;;;;;0.00;0.00;;;;;;;;5049979;28;45295;-87
2021/11/28 05:46:42;;;;;;;;;0.00;0.00;;;;;;;;5049430;28;45361;-87
2021/11/28 05:49:07;;;;;;;;;1.00;0.00;;;;;;;;5051966;28;47321;-87
2021/11/28 05:51:32;;;;;;;;;1.67;1.00;;;;;;;;5052067;28;45185;-87
2021/11/28 05:53:57;;;;;;;;;0.00;0.00;;;;;;;;5052599;28;45068;-87
2021/11/28 05:56:23;;;;;;;;;1.00;0.25;;;;;;;;5052207;28;45282;-87
2021/11/28 05:58:48;;;;;;;;;0.00;0.00;;;;;;;;5052523;28;47456;-87
2021/11/28 06:01:13;;;;;;;;;0.00;0.00;;;;;;;;5070004;28;45101;-88
2021/11/28 06:03:38;;;;;;;;;0.00;0.00;;;;;;;;5052654;28;45128;-87
2021/11/28 06:06:04;;;;;;;;;1.00;1.00;;;;;;;;5053148;28;45089;-88
2021/11/28 06:08:29;;;;;;;;;0.00;0.00;;;;;;;;5055227;28;47351;-87
2021/11/28 06:10:54;;;;;;;;;0.75;0.75;;;;;;;;5062875;28;45213;-87
2021/11/28 06:13:19;;;;;;;;;1.00;1.00;;;;;;;;5051762;28;45016;-87
2021/11/28 06:15:45;;;;;;;;;0.33;0.33;;;;;;;;5052753;28;45592;-87
2021/11/28 06:18:10;;;;;;;;;0.00;0.00;;;;;;;;5050998;28;47385;-86
2021/11/28 06:20:36;;;;;;;;;0.50;0.50;;;;;;;;5050974;28;45076;-87
2021/11/28 06:23:01;;;;;;;;;0.00;0.00;;;;;;;;5051776;28;45149;-87
2021/11/28 06:25:26;;;;;;;;;1.00;1.00;;;;;;;;5051345;28;45462;-86
2021/11/28 06:27:51;;;;;;;;;0.67;0.00;;;;;;;;5052014;28;47038;-87
2021/11/28 06:30:17;;;;;;;;;0.50;0.50;;;;;;;;5051386;28;44961;-86
2021/11/28 06:32:42;;;;;;;;;2.00;0.00;;;;;;;;5051526;28;45213;-87
2021/11/28 06:35:07;;;;;;;;;0.67;0.00;;;;;;;;5051064;28;45277;-87
2021/11/28 06:37:32;;;;;;;;;1.00;1.00;;;;;;;;5050890;28;47513;-87
2021/11/28 06:39:58;;;;;;;;;0.00;0.00;;;;;;;;5051660;28;45282;-87
2021/11/28 06:42:23;;;;;;;;;0.67;0.00;;;;;;;;5052003;28;45301;-86
2021/11/28 06:44:48;;;;;;;;;1.67;1.00;;;;;;;;5051754;28;45139;-87
2021/11/28 06:47:14;;;;;;;;;0.00;0.00;;;;;;;;5051105;28;47203;-87
2021/11/28 06:49:39;;;;;;;;;1.00;0.00;;;;;;;;5051083;28;45273;-87
2021/11/28 06:52:05;;;;;;;;;2.00;1.25;;;;;;;;5050976;28;44930;-86
2021/11/28 06:54:30;;;;;;;;;0.00;0.00;;;;;;;;5051430;28;45260;-86
2021/11/28 06:56:56;;;;;;;;;0.00;0.00;;;;;;;;5052013;28;47384;-86
2021/11/28 06:59:21;;;;;;;;;1.00;0.67;;;;;;;;5050944;28;45403;-87
2021/11/28 07:01:48;;;;;;;;;0.00;0.00;;;;;;;;5051374;28;45017;-86
2021/11/28 07:04:13;;;;;;;;;0.50;0.50;;;;;;;;5050527;28;45230;-87
2021/11/28 07:06:38;;;;;;;;;0.67;0.00;;;;;;;;5050623;28;47046;-86
2021/11/28 07:09:04;;;;;;;;;0.00;0.00;;;;;;;;5050818;28;45097;-87
2021/11/28 07:11:29;;;;;;;;;0.00;0.00;;;;;;;;5051335;28;45406;-86
2021/11/28 07:13:55;;;;;;;;;0.00;0.00;;;;;;;;5051399;28;45077;-86
2021/11/28 07:16:21;;;;;;;;;1.00;1.00;;;;;;;;5049578;28;47235;-86
2021/11/28 07:18:46;;;;;;;;;0.00;0.00;;;;;;;;5049482;28;45144;-86
2021/11/28 07:21:12;;;;;;;;;0.00;0.00;;;;;;;;5050830;28;45183;-87
2021/11/28 07:23:38;;;;;;;;;0.75;0.00;;;;;;;;5050674;28;45220;-86
2021/11/28 07:26:03;;;;;;;;;1.00;1.00;;;;;;;;5050418;28;47254;-86
2021/11/28 07:28:28;;;;;;;;;0.00;0.00;;;;;;;;5050496;28;45269;-86
2021/11/28 07:30:54;;;;;;;;;0.00;0.00;;;;;;;;5050790;28;45149;-86
2021/11/28 07:33:19;;;;;;;;;0.00;0.00;;;;;;;;5050725;28;45207;-87
2021/11/28 07:35:44;;;;;;;;;1.00;1.00;;;;;;;;5050426;28;47790;-86
2021/11/28 07:38:09;;;;;;;;;0.00;0.00;;;;;;;;5050321;28;45153;-86
2021/11/28 07:40:35;;;;;;;;;0.00;0.00;;;;;;;;5050432;28;45176;-86
2021/11/28 07:43:00;;;;;;;;;0.25;0.25;;;;;;;;5050749;28;45344;-86
2021/11/28 07:45:25;;;;;;;;;0.67;0.00;;;;;;;;5049995;28;47406;-86
2021/11/28 07:47:50;;;;;;;;;0.00;0.00;;;;;;;;5049534;28;45582;-87
2021/11/28 07:50:16;;;;;;;;;0.00;0.00;;;;;;;;5050317;28;45026;-88
2021/11/28 07:52:41;;;;;;;;;0.00;0.00;;;;;;;;5049339;28;45327;-88
2021/11/28 07:55:07;;;;;;;;;1.00;0.00;;;;;;;;5050563;28;46680;-88
2021/11/28 07:57:32;;;;;;;;;0.75;0.75;;;;;;;;5050118;28;45274;-87
2021/11/28 07:59:57;;;;;;;;;0.50;0.00;;;;;;;;5051040;28;45236;-87
2021/11/28 08:02:23;;;;;;;;;1.00;1.00;;;;;;;;5048262;28;45151;-87
2021/11/28 08:04:51;;;;;;;;;0.67;0.67;;;;;;;;5049737;28;47345;-87
2021/11/28 08:07:18;;;;;;;;;1.00;1.00;;;;;;;;5049108;28;45436;-87
2021/11/28 08:09:43;;;;;;;;;0.67;0.67;;;;;;;;5049932;28;45296;-87
2021/11/28 08:12:08;;;;;;;;;0.00;0.00;;;;;;;;5049982;28;45340;-87
2021/11/28 08:14:35;;;;;;;;;1.00;0.67;;;;;;;;5048112;28;47366;-88
2021/11/28 08:17:00;;;;;;;;;0.50;0.50;;;;;;;;5049702;28;45282;-87
2021/11/28 08:19:25;;;;;;;;;0.67;0.67;;;;;;;;5049797;28;45058;-87
2021/11/28 08:21:50;;;;;;;;;1.00;0.00;;;;;;;;5050049;28;45253;-88
2021/11/28 08:24:16;;;;;;;;;0.67;0.67;;;;;;;;5041940;28;47044;-88
2021/11/28 08:26:41;;;;;;;;;1.00;1.00;;;;;;;;5032854;28;45636;-87
2021/11/28 08:29:07;;;;;;;;;1.00;1.00;;;;;;;;5032422;28;45698;-86
2021/11/28 08:31:33;;;;;;;;;2.00;1.00;;;;;;;;5040227;28;45638;-88
2021/11/28 08:33:58;;;;;;;;;1.00;0.50;;;;;;;;5044489;28;47066;-88
2021/11/28 08:36:23;;;;;;;;;1.00;0.75;;;;;;;;5042099;28;45666;-88
2021/11/28 08:38:50;;;;;;;;;1.50;1.25;;;;;;;;5042873;28;45183;-88
2021/11/28 08:41:15;;;;;;;;;0.25;0.00;;;;;;;;5044285;28;45291;-88
2021/11/28 08:43:42;;;;;;;;;0.00;0.00;;;;;;;;5042032;28;47227;-88
2021/11/28 08:46:08;;;;;;;;;1.25;1.00;;;;;;;;5046561;28;45139;-88
2021/11/28 08:48:34;;;;;;;;;1.00;1.00;;;;;;;;5038285;28;45625;-88
2021/11/28 08:50:59;;;;;;;;;1.75;1.00;;;;;;;;5031236;28;45589;-88
2021/11/28 08:53:25;;;;;;;;;1.00;1.00;;;;;;;;5032242;28;47316;-88
2021/11/28 08:55:50;;;;;;;;;2.00;2.00;;;;;;;;5035848;28;45676;-88
2021/11/28 08:58:16;;;;;;;;;0.00;0.00;;;;;;;;5036197;28;45329;-88
2021/11/28 09:00:41;;;;;;;;;1.00;1.00;;;;;;;;5036026;28;45777;-88
2021/11/28 09:03:06;;;;;;;;;1.00;1.00;;;;;;;;5042091;28;46926;-87
2021/11/28 09:05:32;;;;;;;;;0.00;0.00;;;;;;;;5043701;28;45308;-88
2021/11/28 09:08:00;;;;;;;;;0.75;0.75;;;;;;;;5036068;28;45583;-88
2021/11/28 09:10:25;;;;;;;;;3.00;0.50;;;;;;;;5039352;28;45470;-87
2021/11/28 09:12:50;;;;;;;;;0.00;0.00;;;;;;;;5037219;28;47246;-88
2021/11/28 09:15:16;;;;;;;;;1.00;0.00;;;;;;;;5042058;28;45334;-87
2021/11/28 09:17:48;;;;;;;;;1.25;0.75;;;;;;;;5040821;28;45508;-87
2021/11/28 09:20:13;;;;;;;;;0.50;0.50;;;;;;;;5043045;28;45416;-88
2021/11/28 09:25:04;;;;;;;;;1.00;0.00;;;;;;;;5063636;28;45183;-88
2021/11/28 09:27:30;;;;;;;;;1.25;1.00;;;;;;;;5036275;28;45591;-88
2021/11/28 09:29:55;;;;;;;;;0.25;0.25;;;;;;;;5036168;28;46003;-88
2021/11/28 09:32:20;;;;;;;;;2.00;2.00;;;;;;;;5037666;28;47192;-89
2021/11/28 09:34:46;;;;;;;;;2.75;1.75;;;;;;;;5040601;28;45060;-88
2021/11/28 09:37:11;;;;;;;;;0.25;0.25;;;;;;;;5035741;28;45534;-88
2021/11/28 09:39:38;;;;;;;;;2.75;2.00;;;;;;;;5039600;28;45437;-88
2021/11/28 09:42:08;;;;;;;;;2.25;1.25;;;;;;;;5040066;28;47406;-88
2021/11/28 09:44:34;;;;;;;;;1.25;1.25;;;;;;;;5040903;28;45035;-88
2021/11/28 09:47:00;;;;;;;;;1.00;1.00;;;;;;;;5044060;28;45486;-88
2021/11/28 09:49:26;;;;;;;;;1.75;1.75;;;;;;;;5034539;28;45546;-88
2021/11/28 09:51:52;;;;;;;;;1.75;1.00;;;;;;;;5034949;28;47116;-87
2021/11/28 09:54:18;;;;;;;;;1.75;1.00;;;;;;;;5033663;28;45967;-87
2021/11/28 09:56:43;;;;;;;;;1.25;1.00;;;;;;;;5036944;28;45530;-88
2021/11/28 09:59:10;;;;;;;;;2.00;2.00;;;;;;;;5034129;28;45588;-88
2021/11/28 10:01:35;;;;;;;;;1.75;1.75;;;;;;;;5034267;28;47301;-88
2021/11/28 10:04:01;;;;;;;;;2.50;2.25;;;;;;;;5034691;28;45708;-88
2021/11/28 10:06:27;;;;;;;;;3.00;3.00;;;;;;;;5033670;28;45367;-88
2021/11/28 10:08:52;;;;;;;;;2.50;2.50;;;;;;;;5035008;28;45583;-88
2021/11/28 10:11:17;;;;;;;;;2.00;1.00;;;;;;;;5033829;28;47164;-89
2021/11/28 10:13:47;;;;;;;;;2.00;2.00;;;;;;;;5035098;28;45684;-88
2021/11/28 10:16:13;;;;;;;;;1.75;1.50;;;;;;;;5035789;28;45375;-88
2021/11/28 10:18:39;;;;;;;;;3.00;2.00;;;;;;;;5033959;28;45580;-88
2021/11/28 10:21:04;;;;;;;;;2.00;2.00;;;;;;;;5033440;28;48028;-88
2021/11/28 10:23:29;;;;;;;;;1.00;1.00;;;;;;;;5033734;28;45408;-88
2021/11/28 10:26:14;;;;;;;;;2.67;1.00;;;;;;;;5034331;28;45438;-87
2021/11/28 10:28:59;;;;;;;;;3.50;2.00;;;;;;;;5033122;28;45379;-88
2021/11/28 10:31:24;;;;;;;;;1.75;1.75;;;;;;;;5033024;28;48060;-87
2021/11/28 10:33:49;;;;;;;;;1.00;1.00;;;;;;;;5034034;28;45370;-87
2021/11/28 10:36:15;;;;;;;;;3.67;3.00;;;;;;;;5032876;28;45636;-88
2021/11/28 10:38:42;;;;;;;;;1.67;1.67;;;;;;;;5033822;28;45454;-88
2021/11/28 10:41:18;;;;;;;;;2.75;2.00;;;;;;;;5033513;28;47175;-87
2021/11/28 10:43:43;;;;;;;;;2.75;1.25;;;;;;;;5033587;28;46158;-87
2021/11/28 10:49:09;;;;;;;;;1.00;0.75;;;;;;;;5075567;22;45446;-87
2021/11/28 10:51:37;;;;;;;;;2.25;1.25;;;;;;;;5032822;28;47186;-87
2021/11/28 10:54:19;;;;;;;;;1.50;1.50;;;;;;;;5033119;28;45409;-87
2021/11/28 10:56:46;;;;;;;;;1.00;1.00;;;;;;;;5033903;28;45426;-87
2021/11/28 10:59:19;;;;;;;;;2.75;2.00;;;;;;;;5033634;28;45552;-88
2021/11/28 11:01:44;;;;;;;;;2.00;2.00;;;;;;;;5033530;28;48215;-87
2021/11/28 11:04:19;;;;;;;;;1.50;1.50;;;;;;;;5032887;28;45471;-87
2021/11/28 11:07:04;;;;;;;;;1.50;1.00;;;;;;;;5033479;28;45418;-87
2021/11/28 11:09:29;;;;;;;;;2.50;1.75;;;;;;;;5033175;28;45696;-87
2021/11/28 11:11:54;;;;;;;;;2.00;2.00;;;;;;;;5033037;28;47190;-87
2021/11/28 11:14:21;;;;;;;;;2.00;2.00;;;;;;;;5033090;28;45354;-88
2021/11/28 11:16:49;;;;;;;;;2.00;1.25;;;;;;;;5033305;28;45577;-87
2021/11/28 11:19:24;;;;;;;;;1.25;1.25;;;;;;;;5032587;28;45506;-86
2021/11/28 11:22:06;;;;;;;;;1.50;1.50;;;;;;;;5033128;28;47163;-87
2021/11/28 11:24:33;;;;;;;;;2.00;1.00;;;;;;;;5032691;28;45729;-87
2021/11/28 11:27:12;;;;;;;;;2.50;1.50;;;;;;;;5032548;28;45421;-87
2021/11/28 11:29:38;;;;;;;;;2.00;2.00;;;;;;;;5033030;28;45487;-87
2021/11/28 11:32:09;;;;;;;;;2.00;1.00;;;;;;;;5033230;28;48363;-87
2021/11/28 11:34:34;;;;;;;;;3.00;3.00;;;;;;;;5032730;28;45753;-87
2021/11/28 11:37:01;;;;;;;;;2.75;2.75;;;;;;;;5034118;28;45497;-87
2021/11/28 11:39:29;;;;;;;;;2.50;2.50;;;;;;;;5032861;28;45531;-87
2021/11/28 11:41:54;;;;;;;;;1.75;1.25;;;;;;;;5032510;28;47792;-88
2021/11/28 11:44:21;;;;;;;;;2.00;2.00;;;;;;;;5033038;28;45578;-88
2021/11/28 11:46:46;;;;;;;;;4.50;3.00;;;;;;;;5032855;28;45511;-87
2021/11/28 11:49:15;;;;;;;;;4.50;2.00;;;;;;;;5032187;28;45551;-87
2021/11/28 11:51:41;;;;;;;;;3.75;3.00;;;;;;;;5032346;28;47528;-87
2021/11/28 11:54:07;;;;;;;;;4.00;3.50;;;;;;;;5032460;28;45657;-87
2021/11/28 11:56:33;;;;;;;;;2.00;2.00;;;;;;;;5032398;28;45689;-87
2021/11/28 11:59:05;;;;;;;;;2.00;2.00;;;;;;;;5033102;28;45480;-88
2021/11/28 12:01:36;;;;;;;;;2.25;2.25;;;;;;;;5032279;28;47249;-87
2021/11/28 12:04:01;;;;;;;;;5.75;3.00;;;;;;;;5031900;28;45816;-87
2021/11/28 12:06:44;;;;;;;;;3.00;3.00;;;;;;;;5031960;28;45591;-87
2021/11/28 12:09:26;;;;;;;;;2.00;2.00;;;;;;;;5032598;28;45627;-87
2021/11/28 12:12:08;;;;;;;;;5.75;4.25;;;;;;;;5031916;28;46936;-87
2021/11/28 12:14:34;;;;;;;;;3.50;3.00;;;;;;;;5032099;28;45962;-87
2021/11/28 12:16:59;;;;;;;;;1.75;1.75;;;;;;;;5032594;28;45437;-88
2021/11/28 12:19:43;;;;;;;;;2.00;2.00;;;;;;;;5031832;28;45629;-87
2021/11/28 12:22:28;;;;;;;;;1.00;1.00;;;;;;;;5032446;28;47156;-87
2021/11/28 12:24:53;;;;;;;;;1.00;1.00;;;;;;;;5032248;28;45750;-87
2021/11/28 12:27:38;;;;;;;;;2.00;2.00;;;;;;;;5031529;28;45497;-87
2021/11/28 12:30:23;;;;;;;;;3.00;2.25;;;;;;;;5031608;28;45427;-87
2021/11/28 12:32:52;;;;;;;;;2.00;2.00;;;;;;;;5031570;28;48307;-87
2021/11/28 12:35:35;;;;;;;;;2.75;2.00;;;;;;;;5034339;28;45916;-87
2021/11/28 12:38:00;;;;;;;;;2.25;2.25;;;;;;;;5053863;28;45491;-87
2021/11/28 12:40:28;;;;;;;;;1.00;1.00;;;;;;;;5035046;28;45374;-87
2021/11/28 12:42:53;;;;;;;;;2.25;2.25;;;;;;;;5035913;28;48035;-88
2021/11/28 12:45:26;;;;;;;;;1.00;1.00;;;;;;;;5026183;28;45678;-87
2021/11/28 12:48:01;;;;;;;;;2.00;2.00;;;;;;;;5014963;28;45385;-87
2021/11/28 12:50:26;;;;;;;;;1.75;1.75;;;;;;;;5014849;28;45543;-87
2021/11/28 12:52:52;;;;;;;;;3.00;3.00;;;;;;;;5015502;28;48568;-87
2021/11/28 12:55:22;;;;;;;;;1.00;1.00;;;;;;;;5014691;28;45570;-87
2021/11/28 12:57:57;;;;;;;;;2.75;2.75;;;;;;;;5015696;28;45460;-87
2021/11/28 13:00:25;;;;;;;;;2.00;2.00;;;;;;;;5014903;28;45511;-87
2021/11/28 13:02:52;;;;;;;;;3.75;3.00;;;;;;;;5015320;28;47247;-88
2021/11/28 13:05:30;;;;;;;;;1.75;1.75;;;;;;;;5015165;28;45840;-87
2021/11/28 13:08:21;;;;;;;;;2.00;2.00;;;;;;;;5015856;28;45383;-87
2021/11/28 13:10:48;;;;;;;;;2.50;2.00;;;;;;;;5014314;28;45364;-87
2021/11/28 13:13:18;;;;;;;;;4.00;3.00;;;;;;;;5014748;28;47551;-87
2021/11/28 13:15:48;;;;;;;;;2.00;2.00;;;;;;;;5015089;28;46111;-87
2021/11/28 13:18:18;;;;;;;;;2.25;2.00;;;;;;;;5014639;28;45489;-88
2021/11/28 13:20:44;;;;;;;;;2.00;2.00;;;;;;;;5014809;28;45518;-87
2021/11/28 13:23:09;;;;;;;;;7.00;5.00;;;;;;;;5014984;28;47320;-88
2021/11/28 13:25:49;;;;;;;;;3.00;2.75;;;;;;;;5014677;28;45708;-88
2021/11/28 13:28:18;;;;;;;;;4.00;4.00;;;;;;;;5014524;28;45695;-87
2021/11/28 13:30:48;;;;;;;;;3.00;2.25;;;;;;;;5014916;28;45948;-88
2021/11/28 13:33:15;;;;;;;;;1.50;0.75;;;;;;;;5013594;28;47688;-88
2021/11/28 13:35:41;;;;;;;;;3.00;2.75;;;;;;;;5033016;28;45584;-88
2021/11/28 13:38:27;;;;;;;;;2.00;1.00;;;;;;;;5014980;28;45360;-88
2021/11/28 13:41:01;;;;;;;;;1.50;1.00;;;;;;;;5014979;28;45416;-88
2021/11/28 13:43:30;;;;;;;;;1.75;1.75;;;;;;;;5014703;28;47982;-87
2021/11/28 13:45:55;;;;;;;;;1.00;0.50;;;;;;;;5027470;28;45753;-88
2021/11/28 13:48:21;;;;;;;;;1.00;1.00;;;;;;;;5033867;28;45476;-88
2021/11/28 13:50:46;;;;;;;;;2.00;2.00;;;;;;;;5034800;28;45560;-88
2021/11/28 13:53:12;;;;;;;;;2.67;2.00;;;;;;;;5034192;28;46948;-87
2021/11/28 13:55:48;;;;;;;;;1.25;0.50;;;;;;;;5033871;28;45641;-87
2021/11/28 13:58:13;;;;;;;;;2.50;1.50;;;;;;;;5034483;28;45510;-87
2021/11/28 14:00:39;;;;;;;;;1.33;1.33;;;;;;;;5034008;28;45351;-87
2021/11/28 14:03:04;;;;;;;;;4.00;3.33;;;;;;;;5034114;28;46932;-88
2021/11/28 14:05:29;;;;;;;;;0.67;0.67;;;;;;;;5033562;28;45591;-88
2021/11/28 14:07:59;;;;;;;;;0.00;0.00;;;;;;;;5034235;28;45777;-88
2021/11/28 14:10:30;;;;;;;;;1.00;1.00;;;;;;;;5033980;28;45395;-87
2021/11/28 14:12:56;;;;;;;;;1.25;1.00;;;;;;;;5034435;28;45581;-87
2021/11/28 14:15:23;;;;;;;;;1.50;1.50;;;;;;;;5034009;28;45498;-87
2021/11/28 14:18:04;;;;;;;;;1.50;1.50;;;;;;;;5034353;28;45577;-88
2021/11/28 14:20:31;;;;;;;;;1.25;1.00;;;;;;;;5034711;28;45811;-88
2021/11/28 14:22:56;;;;;;;;;1.75;1.00;;;;;;;;5034375;28;47127;-88
2021/11/28 14:25:38;;;;;;;;;1.00;1.00;;;;;;;;5033689;28;45494;-87
2021/11/28 14:28:19;;;;;;;;;2.25;1.25;;;;;;;;5034175;28;45418;-88
2021/11/28 14:30:56;;;;;;;;;2.25;2.00;;;;;;;;5034294;28;45645;-87
2021/11/28 14:33:38;;;;;;;;;3.75;3.00;;;;;;;;5033525;28;48449;-88
2021/11/28 14:36:05;;;;;;;;;5.75;3.50;;;;;;;;5033457;28;45835;-87
2021/11/28 14:38:30;;;;;;;;;3.00;3.00;;;;;;;;5033135;28;45466;-87
2021/11/28 14:41:08;;;;;;;;;3.00;2.00;;;;;;;;5034000;28;45496;-87
2021/11/28 14:43:34;;;;;;;;;1.50;1.50;;;;;;;;5033257;28;47952;-87
2021/11/28 14:46:01;;;;;;;;;2.25;2.00;;;;;;;;5019338;28;45561;-87
2021/11/28 14:48:26;;;;;;;;;1.25;1.25;;;;;;;;5013381;28;45485;-87
2021/11/28 14:50:53;;;;;;;;;5.25;3.25;;;;;;;;5013373;28;45610;-87
2021/11/28 14:53:19;;;;;;;;;2.25;2.00;;;;;;;;5013231;28;48216;-88
2021/11/28 14:55:48;;;;;;;;;2.75;2.75;;;;;;;;5013259;28;45626;-88